OICS

Details ICAO OICS (SDG)
Name SANANDAJ
Region Iran
Timezone Asia/Tehran (UTC+3.5)
Plans Departing 0
Arriving 5
Stats Elevation 4,522 ft / 1,378 m (AMSL)
Location 35.245855° 47.009246°
Runways 1
Magnetic Variation 4.880° E
Sunrise 2017-12-12 03:52:31 UTC / 2017-12-12 07:22:31 Local
Sunset 2017-12-12 13:41:37 UTC / 2017-12-12 17:11:37 Local
Advertisement - Login to hide

Runways

ID Width Length Bearing (true) Bearing (mag) Surface Threshold Offset Overrun Length
01 148 ft / 45 m 8,679 ft / 2,645 m 18.12° 13.24° Asphalt 0 ft / 0 m 0 ft / 0 m
19 148 ft / 45 m 8,679 ft / 2,645 m 198.12° 193.24° Asphalt 0 ft / 0 m 345 ft / 105 m

Map

Weather


0- 5 10 15 20 25 30 35+ Temperature / ° C

Clouds and Precipitation
Forecast for 2017-12-12 18:00 UTC. Updated 40 minutes ago

Ground ~20,000 ft ~40,000 ft Winds

METAR

OICS 121553Z 28002KT CAVOK 03/M06 Q1026

TAF

Not found

Frequencies

Recorded 128.45 MHz INFO
Tower 122.90 MHz TWR
Tower 121.90 MHz TWR
Warning: Do not use this data for real-world aviation or navigation. No guarantee of current accuracy is given.